sensor_id;sensor_type;location;lat;lon;timestamp;pressure;altitude;pressure_sealevel;temperature;humidity
5883;BME280;2967;51.488;6.618;2023-03-05T00:03:17;101806.81;;;6.23;100.00
5883;BME280;2967;51.488;6.618;2023-03-05T00:08:22;101905.50;;;6.88;100.00
5883;BME280;2967;51.488;6.618;2023-03-05T00:13:26;101906.34;;;6.89;100.00
5883;BME280;2967;51.488;6.618;2023-03-05T00:18:31;101834.78;;;6.53;100.00
5883;BME280;2967;51.488;6.618;2023-03-05T00:23:34;101714.75;;;5.71;100.00
5883;BME280;2967;51.488;6.618;2023-03-05T00:28:36;101892.13;;;6.68;100.00
5883;BME280;2967;51.488;6.618;2023-03-05T00:33:40;101859.16;;;6.58;100.00
5883;BME280;2967;51.488;6.618;2023-03-05T00:38:47;101889.22;;;6.77;100.00
5883;BME280;2967;51.488;6.618;2023-03-05T00:43:50;101878.59;;;6.80;100.00
5883;BME280;2967;51.488;6.618;2023-03-05T00:48:55;101889.13;;;6.80;100.00
5883;BME280;2967;51.488;6.618;2023-03-05T00:54:04;101820.53;;;6.60;100.00
5883;BME280;2967;51.488;6.618;2023-03-05T00:59:08;101823.78;;;6.68;100.00
5883;BME280;2967;51.488;6.618;2023-03-05T01:04:13;101821.34;;;6.62;100.00
5883;BME280;2967;51.488;6.618;2023-03-05T01:09:16;101838.78;;;6.65;100.00
5883;BME280;2967;51.488;6.618;2023-03-05T01:14:19;101856.66;;;6.81;100.00
5883;BME280;2967;51.488;6.618;2023-03-05T01:19:23;101759.88;;;6.40;100.00
5883;BME280;2967;51.488;6.618;2023-03-05T01:24:29;101819.88;;;6.80;100.00
5883;BME280;2967;51.488;6.618;2023-03-05T01:29:32;101807.16;;;6.66;100.00
5883;BME280;2967;51.488;6.618;2023-03-05T01:34:37;101703.13;;;5.80;100.00
5883;BME280;2967;51.488;6.618;2023-03-05T01:39:40;101760.44;;;6.22;100.00
5883;BME280;2967;51.488;6.618;2023-03-05T01:45:03;101783.41;;;6.43;100.00
5883;BME280;2967;51.488;6.618;2023-03-05T01:50:13;101757.09;;;6.45;100.00
5883;BME280;2967;51.488;6.618;2023-03-05T01:55:20;101800.81;;;6.73;100.00
5883;BME280;2967;51.488;6.618;2023-03-05T02:00:25;101798.19;;;6.73;100.00
5883;BME280;2967;51.488;6.618;2023-03-05T02:05:32;101743.69;;;6.52;100.00
5883;BME280;2967;51.488;6.618;2023-03-05T02:10:37;101785.94;;;6.72;100.00
5883;BME280;2967;51.488;6.618;2023-03-05T02:15:40;101651.69;;;6.02;100.00
5883;BME280;2967;51.488;6.618;2023-03-05T02:20:47;101780.56;;;6.75;100.00
5883;BME280;2967;51.488;6.618;2023-03-05T02:25:52;101733.03;;;6.57;100.00
5883;BME280;2967;51.488;6.618;2023-03-05T02:30:57;101756.91;;;6.75;100.00
5883;BME280;2967;51.488;6.618;2023-03-05T02:36:00;101731.91;;;6.64;100.00
5883;BME280;2967;51.488;6.618;2023-03-05T02:41:05;101760.47;;;6.74;100.00
5883;BME280;2967;51.488;6.618;2023-03-05T02:46:09;101749.94;;;6.74;100.00
5883;BME280;2967;51.488;6.618;2023-03-05T02:51:13;101741.13;;;6.75;100.00
5883;BME280;2967;51.488;6.618;2023-03-05T02:56:18;101723.97;;;6.65;100.00
5883;BME280;2967;51.488;6.618;2023-03-05T03:01:22;101627.78;;;6.09;100.00
5883;BME280;2967;51.488;6.618;2023-03-05T03:06:25;101716.34;;;6.58;100.00
5883;BME280;2967;51.488;6.618;2023-03-05T03:11:31;101692.06;;;6.50;100.00
5883;BME280;2967;51.488;6.618;2023-03-05T03:16:34;101711.84;;;6.61;100.00
5883;BME280;2967;51.488;6.618;2023-03-05T03:21:37;101685.53;;;6.37;100.00
5883;BME280;2967;51.488;6.618;2023-03-05T03:26:43;101707.09;;;6.46;100.00
5883;BME280;2967;51.488;6.618;2023-03-05T03:31:45;101695.88;;;6.41;100.00
5883;BME280;2967;51.488;6.618;2023-03-05T03:36:51;101619.25;;;6.03;100.00
5883;BME280;2967;51.488;6.618;2023-03-05T03:41:55;101683.50;;;6.45;100.00
5883;BME280;2967;51.488;6.618;2023-03-05T03:46:58;101680.31;;;6.35;100.00
5883;BME280;2967;51.488;6.618;2023-03-05T03:52:01;101583.25;;;5.80;100.00
5883;BME280;2967;51.488;6.618;2023-03-05T03:57:05;101664.63;;;6.34;100.00
5883;BME280;2967;51.488;6.618;2023-03-05T04:02:08;101662.03;;;6.32;100.00
5883;BME280;2967;51.488;6.618;2023-03-05T04:07:11;101640.47;;;6.23;100.00
5883;BME280;2967;51.488;6.618;2023-03-05T04:12:16;101643.19;;;6.20;100.00
5883;BME280;2967;51.488;6.618;2023-03-05T04:17:19;101637.59;;;6.30;100.00
5883;BME280;2967;51.488;6.618;2023-03-05T04:22:22;101632.44;;;6.27;100.00
5883;BME280;2967;51.488;6.618;2023-03-05T04:27:26;101630.50;;;6.32;100.00
5883;BME280;2967;51.488;6.618;2023-03-05T04:32:28;101602.69;;;6.01;100.00
5883;BME280;2967;51.488;6.618;2023-03-05T04:37:31;101614.06;;;6.27;100.00
5883;BME280;2967;51.488;6.618;2023-03-05T04:42:36;101619.31;;;6.27;100.00
5883;BME280;2967;51.488;6.618;2023-03-05T04:47:41;101626.91;;;6.35;100.00
5883;BME280;2967;51.488;6.618;2023-03-05T04:52:44;101575.44;;;6.05;100.00
5883;BME280;2967;51.488;6.618;2023-03-05T04:57:48;101469.72;;;5.48;100.00
5883;BME280;2967;51.488;6.618;2023-03-05T05:02:55;101575.56;;;6.00;100.00
5883;BME280;2967;51.488;6.618;2023-03-05T05:07:58;101526.88;;;5.92;100.00
5883;BME280;2967;51.488;6.618;2023-03-05T05:13:02;101564.44;;;5.94;100.00
5883;BME280;2967;51.488;6.618;2023-03-05T05:18:05;101575.81;;;6.19;100.00
5883;BME280;2967;51.488;6.618;2023-03-05T05:23:07;101568.06;;;6.14;100.00
5883;BME280;2967;51.488;6.618;2023-03-05T05:28:12;101565.53;;;6.13;100.00
5883;BME280;2967;51.488;6.618;2023-03-05T05:33:14;101518.28;;;5.87;100.00
5883;BME280;2967;51.488;6.618;2023-03-05T05:38:17;101562.94;;;6.11;100.00
5883;BME280;2967;51.488;6.618;2023-03-05T05:43:23;101584.44;;;6.22;100.00
5883;BME280;2967;51.488;6.618;2023-03-05T05:48:27;101593.34;;;6.18;100.00
5883;BME280;2967;51.488;6.618;2023-03-05T05:53:29;101564.66;;;6.12;100.00
5883;BME280;2967;51.488;6.618;2023-03-05T05:58:34;101580.91;;;6.23;100.00
5883;BME280;2967;51.488;6.618;2023-03-05T06:03:37;101570.00;;;6.09;100.00
5883;BME280;2967;51.488;6.618;2023-03-05T06:08:40;101490.13;;;5.64;100.00
5883;BME280;2967;51.488;6.618;2023-03-05T06:13:44;101558.41;;;6.16;100.00
5883;BME280;2967;51.488;6.618;2023-03-05T06:18:47;101580.91;;;6.23;100.00
5883;BME280;2967;51.488;6.618;2023-03-05T06:23:50;101565.41;;;6.16;100.00
5883;BME280;2967;51.488;6.618;2023-03-05T06:28:54;101556.78;;;6.12;100.00
5883;BME280;2967;51.488;6.618;2023-03-05T06:33:59;101462.41;;;5.57;100.00
5883;BME280;2967;51.488;6.618;2023-03-05T06:39:02;101519.56;;;6.00;100.00
5883;BME280;2967;51.488;6.618;2023-03-05T06:44:07;101503.38;;;5.87;100.00
5883;BME280;2967;51.488;6.618;2023-03-05T06:49:10;101559.28;;;6.15;100.00
5883;BME280;2967;51.488;6.618;2023-03-05T06:54:15;101564.34;;;6.21;100.00
5883;BME280;2967;51.488;6.618;2023-03-05T06:59:19;101476.63;;;5.76;100.00
5883;BME280;2967;51.488;6.618;2023-03-05T07:04:22;101529.00;;;6.05;100.00
5883;BME280;2967;51.488;6.618;2023-03-05T07:09:25;101552.22;;;6.17;100.00
5883;BME280;2967;51.488;6.618;2023-03-05T07:14:29;101548.53;;;6.23;100.00
5883;BME280;2967;51.488;6.618;2023-03-05T07:19:32;101477.94;;;5.89;100.00
5883;BME280;2967;51.488;6.618;2023-03-05T07:24:35;101544.03;;;6.26;100.00
5883;BME280;2967;51.488;6.618;2023-03-05T07:29:42;101542.41;;;6.22;100.00
5883;BME280;2967;51.488;6.618;2023-03-05T07:34:49;101496.03;;;5.97;100.00
5883;BME280;2967;51.488;6.618;2023-03-05T07:39:51;101543.13;;;6.27;100.00
5883;BME280;2967;51.488;6.618;2023-03-05T07:44:56;101538.59;;;6.31;100.00
5883;BME280;2967;51.488;6.618;2023-03-05T07:50:00;101459.56;;;5.63;100.00
5883;BME280;2967;51.488;6.618;2023-03-05T07:55:03;101432.25;;;5.69;100.00
5883;BME280;2967;51.488;6.618;2023-03-05T08:00:08;101490.28;;;6.12;100.00
5883;BME280;2967;51.488;6.618;2023-03-05T08:05:14;101460.16;;;5.97;100.00
5883;BME280;2967;51.488;6.618;2023-03-05T08:10:18;101380.47;;;5.49;100.00
5883;BME280;2967;51.488;6.618;2023-03-05T08:15:24;101534.03;;;6.36;100.00
5883;BME280;2967;51.488;6.618;2023-03-05T08:20:27;101527.25;;;6.30;100.00
5883;BME280;2967;51.488;6.618;2023-03-05T08:25:30;101515.38;;;6.19;100.00
5883;BME280;2967;51.488;6.618;2023-03-05T08:30:34;101375.22;;;5.49;100.00
5883;BME280;2967;51.488;6.618;2023-03-05T08:35:37;101452.75;;;6.08;100.00
5883;BME280;2967;51.488;6.618;2023-03-05T08:40:40;101503.09;;;6.44;100.00
5883;BME280;2967;51.488;6.618;2023-03-05T08:45:45;101494.81;;;6.54;100.00
5883;BME280;2967;51.488;6.618;2023-03-05T08:50:50;101449.91;;;6.37;100.00
5883;BME280;2967;51.488;6.618;2023-03-05T08:55:54;101493.97;;;6.54;100.00
5883;BME280;2967;51.488;6.618;2023-03-05T09:00:58;101483.47;;;6.75;100.00
5883;BME280;2967;51.488;6.618;2023-03-05T09:06:09;101492.25;;;6.76;100.00
5883;BME280;2967;51.488;6.618;2023-03-05T09:11:15;101308.72;;;5.73;100.00
5883;BME280;2967;51.488;6.618;2023-03-05T09:16:19;101482.78;;;6.93;100.00
5883;BME280;2967;51.488;6.618;2023-03-05T09:21:22;101406.66;;;6.46;100.00
5883;BME280;2967;51.488;6.618;2023-03-05T09:26:25;101441.97;;;6.83;100.00
5883;BME280;2967;51.488;6.618;2023-03-05T09:31:31;101264.25;;;5.93;100.00
5883;BME280;2967;51.488;6.618;2023-03-05T09:36:34;101312.03;;;6.24;100.00
5883;BME280;2967;51.488;6.618;2023-03-05T09:42:07;101326.34;;;6.39;100.00
5883;BME280;2967;51.488;6.618;2023-03-05T09:47:49;101461.31;;;7.25;100.00
5883;BME280;2967;51.488;6.618;2023-03-05T09:53:00;101454.19;;;7.07;100.00
5883;BME280;2967;51.488;6.618;2023-03-05T09:58:13;101459.88;;;7.18;100.00
5883;BME280;2967;51.488;6.618;2023-03-05T10:03:48;101243.53;;;5.86;100.00
5883;BME280;2967;51.488;6.618;2023-03-05T10:08:55;101227.97;;;5.81;100.00
5883;BME280;2967;51.488;6.618;2023-03-05T10:14:03;101390.69;;;6.95;100.00
5883;BME280;2967;51.488;6.618;2023-03-05T10:19:17;101353.44;;;6.62;100.00
5883;BME280;2967;51.488;6.618;2023-03-05T10:24:26;101438.56;;;7.24;100.00
5883;BME280;2967;51.488;6.618;2023-03-05T10:29:47;101110.63;;;5.62;100.00
5883;BME280;2967;51.488;6.618;2023-03-05T10:35:14;101408.00;;;7.42;100.00
5883;BME280;2967;51.488;6.618;2023-03-05T10:40:25;101249.09;;;6.64;100.00
5883;BME280;2967;51.488;6.618;2023-03-05T10:45:35;101404.78;;;7.55;100.00
5883;BME280;2967;51.488;6.618;2023-03-05T10:50:47;101232.53;;;6.62;100.00
5883;BME280;2967;51.488;6.618;2023-03-05T10:55:52;101171.34;;;6.39;100.00
5883;BME280;2967;51.488;6.618;2023-03-05T11:01:11;100971.06;;;5.31;100.00
5883;BME280;2967;51.488;6.618;2023-03-05T11:07:05;101389.09;;;7.92;100.00
5883;BME280;2967;51.488;6.618;2023-03-05T11:12:12;101179.19;;;7.00;100.00
5883;BME280;2967;51.488;6.618;2023-03-05T11:17:29;101229.38;;;7.34;100.00
5883;BME280;2967;51.488;6.618;2023-03-05T11:23:07;101096.03;;;6.39;100.00
5883;BME280;2967;51.488;6.618;2023-03-05T11:28:55;101016.03;;;6.26;100.00
5883;BME280;2967;51.488;6.618;2023-03-05T11:34:03;101078.56;;;6.77;98.66
5883;BME280;2967;51.488;6.618;2023-03-05T11:39:33;101347.44;;;8.20;98.43
5883;BME280;2967;51.488;6.618;2023-03-05T11:45:00;101341.31;;;8.38;98.66
5883;BME280;2967;51.488;6.618;2023-03-05T11:50:19;100888.44;;;5.62;97.55
5883;BME280;2967;51.488;6.618;2023-03-05T11:55:35;101175.41;;;7.44;97.08
5883;BME280;2967;51.488;6.618;2023-03-05T12:00:46;101320.63;;;8.10;96.76
5883;BME280;2967;51.488;6.618;2023-03-05T12:05:56;101322.03;;;8.19;96.56
5883;BME280;2967;51.488;6.618;2023-03-05T12:11:24;101084.19;;;6.69;98.28
5883;BME280;2967;51.488;6.618;2023-03-05T12:16:33;101235.09;;;7.62;100.00
5883;BME280;2967;51.488;6.618;2023-03-05T12:21:53;101087.84;;;6.65;100.00
5883;BME280;2967;51.488;6.618;2023-03-05T12:27:13;101296.13;;;7.90;100.00
5883;BME280;2967;51.488;6.618;2023-03-05T12:38:31;100855.91;;;5.66;100.00
5883;BME280;2967;51.488;6.618;2023-03-05T12:43:45;101256.53;;;8.10;100.00
5883;BME280;2967;51.488;6.618;2023-03-05T12:49:36;100783.78;;;5.36;100.00
5883;BME280;2967;51.488;6.618;2023-03-05T12:55:18;101231.50;;;8.20;100.00
5883;BME280;2967;51.488;6.618;2023-03-05T13:01:00;100787.88;;;5.82;99.45
5883;BME280;2967;51.488;6.618;2023-03-05T13:06:26;101220.88;;;8.21;100.00
5883;BME280;2967;51.488;6.618;2023-03-05T13:11:51;101205.31;;;8.34;100.00
5883;BME280;2967;51.488;6.618;2023-03-05T13:17:49;101204.16;;;8.22;100.00
5883;BME280;2967;51.488;6.618;2023-03-05T13:23:35;101151.28;;;8.25;100.00
5883;BME280;2967;51.488;6.618;2023-03-05T13:29:20;100913.19;;;6.72;99.86
5883;BME280;2967;51.488;6.618;2023-03-05T13:34:36;101134.19;;;8.15;100.00
5883;BME280;2967;51.488;6.618;2023-03-05T13:39:55;101063.31;;;7.75;100.00
5883;BME280;2967;51.488;6.618;2023-03-05T13:44:59;101014.97;;;7.43;100.00
5883;BME280;2967;51.488;6.618;2023-03-05T13:50:06;100945.41;;;6.94;100.00
5883;BME280;2967;51.488;6.618;2023-03-05T13:55:12;101151.00;;;8.48;100.00
5883;BME280;2967;51.488;6.618;2023-03-05T14:00:27;101068.13;;;8.01;100.00
5883;BME280;2967;51.488;6.618;2023-03-05T14:05:31;100975.47;;;7.07;100.00
5883;BME280;2967;51.488;6.618;2023-03-05T14:10:36;101103.09;;;7.69;100.00
5883;BME280;2967;51.488;6.618;2023-03-05T14:15:39;101133.16;;;8.36;100.00
5883;BME280;2967;51.488;6.618;2023-03-05T14:21:01;100945.44;;;7.47;100.00
5883;BME280;2967;51.488;6.618;2023-03-05T14:26:22;100979.84;;;7.77;100.00
5883;BME280;2967;51.488;6.618;2023-03-05T14:31:32;100690.69;;;6.02;100.00
5883;BME280;2967;51.488;6.618;2023-03-05T14:36:45;101098.94;;;8.69;99.17
5883;BME280;2967;51.488;6.618;2023-03-05T14:41:50;101063.47;;;8.42;99.48
5883;BME280;2967;51.488;6.618;2023-03-05T14:46:53;101085.72;;;8.53;99.42
5883;BME280;2967;51.488;6.618;2023-03-05T14:51:57;100957.47;;;7.69;99.96
5883;BME280;2967;51.488;6.618;2023-03-05T14:57:00;100954.06;;;7.67;99.18
5883;BME280;2967;51.488;6.618;2023-03-05T15:02:08;101035.72;;;8.35;99.83
5883;BME280;2967;51.488;6.618;2023-03-05T15:07:18;100842.28;;;7.40;99.27
5883;BME280;2967;51.488;6.618;2023-03-05T15:12:23;100900.72;;;7.47;99.31
5883;BME280;2967;51.488;6.618;2023-03-05T15:17:33;100678.44;;;6.19;97.93
5883;BME280;2967;51.488;6.618;2023-03-05T15:22:56;100859.06;;;7.55;98.20
5883;BME280;2967;51.488;6.618;2023-03-05T15:28:02;100903.22;;;7.99;96.41
5883;BME280;2967;51.488;6.618;2023-03-05T15:33:11;101007.16;;;8.60;95.15
5883;BME280;2967;51.488;6.618;2023-03-05T15:38:25;100737.84;;;6.91;94.21
5883;BME280;2967;51.488;6.618;2023-03-05T15:43:28;100857.44;;;7.52;97.24
5883;BME280;2967;51.488;6.618;2023-03-05T15:48:33;100923.47;;;7.48;98.10
5883;BME280;2967;51.488;6.618;2023-03-05T15:53:39;100424.75;;;4.78;97.92
5883;BME280;2967;51.488;6.618;2023-03-05T15:59:08;100978.13;;;8.27;98.59
5883;BME280;2967;51.488;6.618;2023-03-05T16:04:14;100796.78;;;7.04;95.29
5883;BME280;2967;51.488;6.618;2023-03-05T16:15:47;100954.34;;;8.12;93.37
5883;BME280;2967;51.488;6.618;2023-03-05T16:21:12;100563.66;;;5.87;94.33
5883;BME280;2967;51.488;6.618;2023-03-05T16:26:20;100867.56;;;7.76;95.13
5883;BME280;2967;51.488;6.618;2023-03-05T16:31:28;100857.66;;;7.65;95.02
5883;BME280;2967;51.488;6.618;2023-03-05T16:36:34;100939.53;;;8.09;94.72
5883;BME280;2967;51.488;6.618;2023-03-05T16:41:49;100926.78;;;8.02;94.93
5883;BME280;2967;51.488;6.618;2023-03-05T16:46:55;100916.00;;;8.06;94.34
5883;BME280;2967;51.488;6.618;2023-03-05T16:51:58;100758.34;;;7.02;94.49
5883;BME280;2967;51.488;6.618;2023-03-05T16:57:16;100748.38;;;6.91;94.72
5883;BME280;2967;51.488;6.618;2023-03-05T17:02:22;100854.72;;;7.54;95.78
5883;BME280;2967;51.488;6.618;2023-03-05T17:07:30;100919.91;;;7.82;96.52
5883;BME280;2967;51.488;6.618;2023-03-05T17:12:33;100833.63;;;7.38;96.91
5883;BME280;2967;51.488;6.618;2023-03-05T17:17:37;100893.00;;;7.76;96.85
5883;BME280;2967;51.488;6.618;2023-03-05T17:22:41;100640.53;;;6.25;97.27
5883;BME280;2967;51.488;6.618;2023-03-05T17:27:44;100735.63;;;6.84;97.99
5883;BME280;2967;51.488;6.618;2023-03-05T17:32:52;100857.44;;;7.52;98.99
5883;BME280;2967;51.488;6.618;2023-03-05T17:37:55;100906.41;;;7.71;99.31
5883;BME280;2967;51.488;6.618;2023-03-05T17:42:59;100901.84;;;7.75;100.00
5883;BME280;2967;51.488;6.618;2023-03-05T17:48:12;100898.28;;;7.08;100.00
5883;BME280;2967;51.488;6.618;2023-03-05T17:53:16;100662.75;;;5.82;100.00
5883;BME280;2967;51.488;6.618;2023-03-05T17:58:19;100620.34;;;5.36;100.00
5883;BME280;2967;51.488;6.618;2023-03-05T18:03:27;100871.44;;;6.83;100.00
5883;BME280;2967;51.488;6.618;2023-03-05T18:08:31;100890.84;;;7.16;100.00
5883;BME280;2967;51.488;6.618;2023-03-05T18:13:34;100877.41;;;7.22;100.00
5883;BME280;2967;51.488;6.618;2023-03-05T18:18:38;100739.88;;;6.34;100.00
5883;BME280;2967;51.488;6.618;2023-03-05T18:23:42;100753.84;;;6.34;100.00
5883;BME280;2967;51.488;6.618;2023-03-05T18:29:57;100667.91;;;5.28;100.00
5883;BME280;2967;51.488;6.618;2023-03-05T18:35:08;100880.41;;;6.79;100.00
5883;BME280;2967;51.488;6.618;2023-03-05T18:40:18;100772.19;;;6.36;100.00
5883;BME280;2967;51.488;6.618;2023-03-05T18:45:28;100589.38;;;5.44;100.00
5883;BME280;2967;51.488;6.618;2023-03-05T18:50:38;100867.78;;;7.04;100.00
5883;BME280;2967;51.488;6.618;2023-03-05T18:55:43;100609.06;;;5.52;100.00
5883;BME280;2967;51.488;6.618;2023-03-05T19:01:06;100488.69;;;4.93;100.00
5883;BME280;2967;51.488;6.618;2023-03-05T19:06:45;100586.16;;;5.56;100.00
5883;BME280;2967;51.488;6.618;2023-03-05T19:12:08;100792.09;;;6.75;100.00
5883;BME280;2967;51.488;6.618;2023-03-05T19:17:16;100480.63;;;4.97;100.00
5883;BME280;2967;51.488;6.618;2023-03-05T19:22:21;100679.44;;;6.17;100.00
5883;BME280;2967;51.488;6.618;2023-03-05T19:27:25;100607.97;;;5.75;100.00
5883;BME280;2967;51.488;6.618;2023-03-05T19:32:33;100363.41;;;4.47;100.00
5883;BME280;2967;51.488;6.618;2023-03-05T19:38:00;100760.44;;;6.78;100.00
5883;BME280;2967;51.488;6.618;2023-03-05T19:43:15;100645.50;;;6.12;100.00
5883;BME280;2967;51.488;6.618;2023-03-05T19:48:19;100596.06;;;5.86;100.00
5883;BME280;2967;51.488;6.618;2023-03-05T19:53:24;100505.88;;;5.35;100.00
5883;BME280;2967;51.488;6.618;2023-03-05T19:58:28;100761.56;;;6.90;100.00
5883;BME280;2967;51.488;6.618;2023-03-05T20:03:34;100431.03;;;4.93;100.00
5883;BME280;2967;51.488;6.618;2023-03-05T20:08:43;100731.66;;;6.58;100.00
5883;BME280;2967;51.488;6.618;2023-03-05T20:13:52;100809.56;;;6.76;100.00
5883;BME280;2967;51.488;6.618;2023-03-05T20:19:07;100585.34;;;5.18;100.00
5883;BME280;2967;51.488;6.618;2023-03-05T20:24:15;100707.34;;;6.01;100.00
5883;BME280;2967;51.488;6.618;2023-03-05T20:29:19;100686.00;;;6.08;100.00
5883;BME280;2967;51.488;6.618;2023-03-05T20:34:22;100788.53;;;6.76;100.00
5883;BME280;2967;51.488;6.618;2023-03-05T20:39:28;100715.63;;;6.10;100.00
5883;BME280;2967;51.488;6.618;2023-03-05T20:44:33;100261.03;;;3.22;100.00
5883;BME280;2967;51.488;6.618;2023-03-05T20:49:48;100770.63;;;6.67;100.00
5883;BME280;2967;51.488;6.618;2023-03-05T20:55:11;100421.03;;;4.65;100.00
5883;BME280;2967;51.488;6.618;2023-03-05T21:00:23;100512.84;;;5.17;100.00
5883;BME280;2967;51.488;6.618;2023-03-05T21:11:48;100580.47;;;5.83;100.00
5883;BME280;2967;51.488;6.618;2023-03-05T21:16:59;100752.44;;;6.80;100.00
5883;BME280;2967;51.488;6.618;2023-03-05T21:23:12;100271.72;;;3.56;100.00
5883;BME280;2967;51.488;6.618;2023-03-05T21:28:33;100735.34;;;6.54;100.00
5883;BME280;2967;51.488;6.618;2023-03-05T21:41:22;100724.59;;;6.59;100.00
5883;BME280;2967;51.488;6.618;2023-03-05T21:46:28;100353.22;;;4.41;100.00
5883;BME280;2967;51.488;6.618;2023-03-05T21:51:32;100720.34;;;6.56;100.00
5883;BME280;2967;51.488;6.618;2023-03-05T21:56:48;100724.06;;;6.52;100.00
